x

8452951 - Potter Cove, Prudence Island, Ri (ptcr1) Weather Station

8:54 - Tue 5th May 2015 All times are EDT. -4 hours from GMT.

  • Wind
    2mph, 6mph gusts
  • Air Temp 55°f
  • Sea Pressure 1023.4mb
  • 8452951 - Potter Cove, Prudence Island, Ri
  • 8452951 - Potter Cove, Prudence Island, Ri

More Historic Weather Station data

Upgrade to MSW Pro to gain access to the past 30 days of data for over 8000 Wavebouys and Weather Stations around the globe.

Join Pro

Comparision Forecast

View Surf forecast
   
mar. 05/05 8:54 2 6 mph 1023.4mb 55f
8:48 3 5 mph 1023.4mb 55f
8:42  -  2 mph 1023.1mb 55f
8:36 1 2 mph 1022.8mb 55f
8:30 2 3 mph 1022.7mb 55f
8:24 2 5 mph 1022.6mb 56f
8:18 3 6 mph 1022.5mb 56f
8:12 5 7 mph 1022.7mb 56f
8:06 5 7 mph 1022.7mb 56f
8:00 3 6 mph 1022.6mb 56f
7:54 6 9 mph 1022.5mb 56f
7:48 5 7 mph 1022.4mb 55f
7:42 5 7 mph 1022.3mb 56f
7:36 6 9 mph 1022.2mb 56f
7:30 5 7 mph 1022mb 57f
7:24 5 8 mph 1021.8mb 58f
7:18 5 8 mph 1021.8mb 59f
7:12 5 8 mph 1021.8mb 60f
7:06 3 8 mph 1021.9mb 60f
7:00 5 8 mph 1021.9mb 59f
6:54 6 9 mph 1021.9mb 59f
6:48 6 11 mph 1021.8mb 59f
6:42 7 13 mph 1021.7mb 60f
6:36 7 13 mph 1021.7mb 61f
6:30 8 16 mph 1021.8mb 61f
6:24 7 11 mph 1021.8mb 60f
6:18 8 14 mph 1021.8mb 60f
6:12 7 14 mph 1021.7mb 60f
6:06 7 9 mph 1021.7mb 59f
6:00 8 13 mph 1021.7mb 59f
5:54 8 13 mph 1021.6mb 60f
5:48 7 11 mph 1021.6mb 60f
5:42 9 14 mph 1021.5mb 62f
5:36 8 14 mph 1021.4mb 62f
5:30 8 15 mph 1021.4mb 63f
5:24 9 17 mph 1021.4mb 64f
5:18 9 15 mph 1021.5mb 63f
5:12 8 14 mph 1021.5mb 64f
5:06 9 17 mph 1021.7mb 64f
5:00 8 17 mph 1021.6mb 64f
4:54 8 13 mph 1021.8mb 64f
4:48 9 16 mph 1021.9mb 64f
4:42 8 14 mph 1021.7mb 65f
4:36 9 16 mph 1021.6mb 65f
4:30 9 17 mph 1021.6mb 65f
4:24 9 16 mph 1021.8mb 66f
4:18 9 16 mph 1021.8mb 66f
4:12 8 14 mph 1021.9mb 67f
4:06 9 15 mph 1021.9mb 67f
4:00 9 15 mph 1022mb 66f
3:54 8 14 mph 1022mb 65f
3:48 9 14 mph 1021.9mb 65f
3:42 8 14 mph 1022mb 65f
3:36 9 16 mph 1022mb 66f
3:30 8 11 mph 1022.2mb 65f
3:24 7 11 mph 1022.1mb 69f
3:18 3 6 mph 1022.1mb 74f
3:12 3 5 mph 1022.1mb 73f
3:06 3 5 mph 1022.2mb 75f
3:00 5 6 mph 1022.2mb 75f
2:54 5 6 mph 1022.3mb 76f
2:48 5 6 mph 1022.5mb 75f
2:42 2
mph
1022.5mb 75f
2:36 2 3 mph 1022.6mb 75f
2:30 2 3 mph 1022.8mb 75f
2:24 2 3 mph 1022.8mb 74f
2:18 3
mph
1022.7mb 73f
2:12 2
mph
1022.8mb 74f
2:06 3
mph
1022.8mb 72f
2:00 3 5 mph 1022.9mb 71f
1:54 3 5 mph 1023mb 70f
1:48 3 5 mph 1022.9mb 71f
1:42 5 6 mph 1023mb 71f
1:36 6
mph
1023mb 71f
1:30 6
mph
1023.1mb 72f
1:24 5 6 mph 1023.2mb 71f
1:18 5
mph
1023.2mb 73f
1:12 5 6 mph 1023.2mb 70f
1:06 6 7 mph 1023.3mb 69f
1:00 6 7 mph 1023.3mb 68f
12:54 7 8 mph 1023.3mb 69f
12:48 7 8 mph 1023.3mb 68f
12:42 5 6 mph 1023.3mb 67f
12:36 7 8 mph 1023.2mb 69f
12:30 7
mph
1023.3mb 69f
12:24 7 8 mph 1023.3mb 69f
12:18 7 9 mph 1023.4mb 69f
12:12 9 11 mph 1023.4mb 68f
12:06 9 11 mph 1023.4mb 69f
12:00 8 11 mph 1023.5mb 69f
11:54 9 11 mph 1023.5mb 70f
11:48 8 10 mph 1023.5mb 69f
11:42 8 13 mph 1023.5mb 69f
11:36 7 11 mph 1023.5mb 66f
11:30 6 9 mph 1023.4mb 65f
11:24 3 5 mph 1023.4mb 64f
11:18 2 5 mph 1023.4mb 64f
11:12 3 5 mph 1023.3mb 65f
11:06 3 5 mph 1023.3mb 65f
11:00 3 5 mph 1023.4mb 65f
10:54 5 7 mph 1023.3mb 64f
10:48 5 7 mph 1023.2mb 66f
10:42 2 3 mph 1023.2mb 68f
10:36 2 5 mph 1023.2mb 68f
10:30 1 2 mph - -
10:24 2 3 mph 1023.1mb 65f
10:18 3 5 mph 1023mb 64f
10:12 3 5 mph 1023mb 63f
10:06 3 5 mph 1023mb 62f
10:00 3 5 mph 1022.9mb 62f
9:54 2 3 mph 1022.8mb 63f
9:48  -  3 mph 1022.8mb 65f
9:42 2 3 mph 1022.9mb 62f
9:36 1 2 mph 1022.9mb 64f
9:30 2 3 mph 1022.8mb 64f
9:24 1 2 mph 1022.8mb 64f
9:18 3 5 mph 1022.7mb 63f
9:12 2 3 mph 1022.7mb 61f
9:06  -  2 mph 1022.8mb 60f
9:00  -  2 mph 1022.8mb 59f
8:54 2 3 mph 1022.9mb 60f
8:48 1 3 mph 1022.8mb 61f
8:42 3 7 mph 1022.8mb 60f
8:36 5 6 mph 1022.7mb 59f
8:30 5 9 mph 1022.7mb 59f
8:24 7 9 mph 1022.6mb 58f
8:18 6 9 mph 1022.6mb 58f
8:12 6 9 mph 1022.6mb 58f
8:06 6 8 mph 1022.5mb 58f
8:00 7 10 mph 1022.3mb 58f
7:54 8 10 mph 1022.1mb 58f
7:48 8 11 mph 1022.1mb 57f
7:42 7 9 mph 1022.1mb 58f
7:36 7 10 mph 1022.2mb 57f
7:30 7 10 mph 1022.1mb 57f
7:24 7 10 mph 1022.1mb 57f
7:18 7 10 mph 1022.1mb 56f
7:12 6 8 mph 1022.1mb 56f
7:06 7 9 mph 1022mb 56f
7:00 6 9 mph 1022mb 56f
6:54 6 8 mph 1022mb 56f
6:48 6 9 mph 1021.9mb 55f
6:42 7 10 mph 1021.8mb 55f
6:36 7 11 mph 1021.7mb 55f
6:30 7 10 mph 1021.6mb 55f
6:24 8 13 mph 1021.4mb 55f
6:18 8 13 mph 1021.3mb 55f
6:12 8 11 mph 1021.3mb 55f
6:06 7 10 mph 1021.2mb 55f
6:00 7 10 mph 1021.2mb 55f
5:54 7 11 mph 1021.1mb 56f
5:48 8 11 mph 1021mb 57f
5:42 7 10 mph 1021mb 58f
5:36 7 10 mph 1021mb 59f
5:30 7 10 mph 1021.1mb 59f
5:24 6 9 mph 1021mb 59f
5:18 6 10 mph 1021mb 60f
5:12 6 8 mph 1020.9mb 60f
5:06 6 9 mph 1020.9mb 60f
5:00 6 10 mph 1020.9mb 59f
4:54 5 9 mph 1021mb 59f
4:48 6 8 mph 1021mb 58f
4:42 6 10 mph 1021mb 58f
4:36 7 11 mph 1021mb 59f
4:30 6 11 mph 1021mb 58f
4:24 6 8 mph 1021.1mb 58f
4:18 6 10 mph 1021mb 58f
4:12 6 9 mph 1021mb 58f
4:06 6 9 mph 1021.2mb 57f
4:00 6 8 mph 1021.4mb 57f
3:54 3 7 mph 1021.4mb 57f
3:48 5 9 mph 1021.3mb 58f
3:42 5 8 mph 1021.3mb 58f
3:36 5 8 mph 1021.2mb 58f
3:30 5 9 mph 1021.1mb 58f
3:24 5 8 mph 1021.1mb 58f
3:18 7 13 mph 1021mb 59f
3:12 7 13 mph 1021mb 59f
3:06 8 14 mph 1020.9mb 58f
3:00 7 13 mph 1020.9mb 58f
2:54 7 10 mph 1021mb 59f
2:48 7 13 mph 1020.9mb 59f
2:42 7 11 mph 1020.9mb 59f
2:36 8 15 mph 1020.9mb 59f
2:30 8 14 mph 1020.9mb 58f
2:24 8 14 mph 1021mb 57f
2:18 8 11 mph 1021mb 57f
2:12 8 14 mph 1021.1mb 56f
2:06 8 13 mph 1021mb 57f
2:00 8 16 mph 1021.1mb 57f
1:54 9 14 mph 1021.1mb 57f
1:48 9 14 mph 1021mb 58f
1:42 10 17 mph 1021mb 58f
1:36 11 16 mph 1020.9mb 58f
1:30 13 16 mph 1021mb 58f
1:24 11 17 mph 1021mb 58f
1:18 11 18 mph 1021.1mb 58f
1:12 11 16 mph 1021.1mb 57f
1:06 10 15 mph 1021.1mb 57f
1:00 9 15 mph 1021.3mb 57f
12:54 10 16 mph 1021.3mb 57f
12:48 9 15 mph 1021.3mb 57f
12:42 9 14 mph 1021.3mb 57f
12:36 8 13 mph 1021.3mb 56f
12:30 7 10 mph 1021.3mb 56f
12:24 8 14 mph 1021.4mb 56f
12:18 8 13 mph 1021.4mb 55f
12:12 7 11 mph 1021.5mb 55f
12:06 7 10 mph 1021.6mb 56f
12:00 7 10 mph 1021.6mb 56f
lun. 05/04 11:54 7 11 mph 1021.5mb 56f
11:48 6 11 mph 1021.5mb 56f
11:42 8 13 mph 1021.5mb 57f
11:36 8 13 mph 1021.5mb 57f
11:30 8 11 mph 1021.5mb 57f
11:24 9 15 mph 1021.5mb 57f
11:18 8 14 mph 1021.5mb 58f
11:12 8 11 mph 1021.5mb 58f
11:06 9 15 mph 1021.5mb 58f
11:00 8 11 mph 1021.5mb 58f
10:54 8 11 mph 1021.5mb 56f
10:48 6 10 mph 1021.6mb 56f
10:42 7 11 mph 1021.6mb 57f
10:36 6 11 mph 1021.6mb 57f
10:30 7 11 mph 1021.7mb 57f
10:24 7 14 mph 1021.8mb 58f
10:18 7 11 mph 1021.8mb 57f
10:12 6 11 mph 1021.8mb 58f
10:06 7 14 mph 1021.9mb 58f
10:00 6 13 mph 1022mb 58f
9:54 7 11 mph 1022mb 58f
9:48 7 11 mph 1022mb 57f
9:42 6 11 mph 1022.1mb 57f
9:36 7 14 mph 1022mb 57f
9:30 7 11 mph 1022mb 58f
9:24 6 10 mph 1022mb 57f
9:18 7 10 mph 1021.9mb 57f
9:12 6 11 mph 1021.9mb 58f
9:06 7 14 mph 1021.9mb 59f
9:00 8 17 mph 1021.9mb 59f
8:54 9 14 mph 1021.8mb 59f
8:48 8 14 mph 1021.7mb 59f
8:42 7 14 mph 1021.7mb 59f
8:36 9 13 mph 1021.7mb 60f
8:30 9 17 mph 1021.6mb 60f
8:24 8 15 mph 1021.6mb 60f
8:18 8 14 mph 1021.6mb 60f
8:12 9 15 mph 1021.5mb 60f
8:06 9 15 mph 1021.4mb 60f
8:00 8 14 mph 1021.4mb 60f
7:54 9 14 mph 1021.3mb 60f
7:48 9 17 mph 1021.4mb 61f
7:42 8 14 mph 1021.3mb 61f
7:36 9 17 mph 1021.3mb 62f
7:30 8 13 mph 1021.3mb 61f
7:24 8 16 mph 1021.3mb 62f
7:18 9 15 mph 1021.3mb 63f
7:12 9 15 mph 1021.2mb 63f
7:06 9 15 mph 1021.2mb 62f
7:00 10 20 mph 1021.1mb 62f
6:54 11 18 mph 1021.1mb 62f
6:48 10 18 mph 1021.1mb 63f
6:42 9 17 mph 1021.1mb 64f
6:36 11 18 mph 1021.1mb 64f
6:30 9 16 mph 1021mb 63f
6:24 9 17 mph 1021.1mb 63f
6:18 9 16 mph 1021.1mb 64f
6:12 10 16 mph 1021mb 64f
6:06 9 15 mph 1021mb 64f
6:00 9 18 mph 1021.1mb 65f
5:54 8 15 mph 1021.1mb 65f
5:48 8 14 mph 1021.1mb 65f
5:42 7 14 mph 1021.1mb 65f
5:36 9 18 mph 1021.1mb 65f
5:30 8 14 mph 1021.2mb 65f
5:24 9 15 mph 1021.3mb 66f
5:18 8 16 mph 1021.3mb 66f
5:12 7 14 mph 1021.3mb 66f
5:06 8 16 mph 1021.3mb 66f
5:00 8 16 mph 1021.3mb 66f
4:54 8 14 mph 1021.3mb 66f
4:48 9 16 mph 1021.3mb 66f
4:42 8 15 mph 1021.3mb 67f
4:36 8 14 mph 1021.3mb 67f
4:30 10 16 mph 1021.3mb 66f
4:24 10 22 mph 1021.4mb 66f
4:18 9 18 mph 1021.4mb 66f
4:12 9 16 mph 1021.3mb 67f
4:06 10 18 mph 1021.4mb 66f
4:00 11 21 mph 1021.5mb 65f
3:54 10 18 mph 1021.5mb 66f
3:48 10 17 mph 1021.5mb 66f
3:42 9 18 mph 1021.5mb 67f
3:36 9 18 mph 1021.5mb 67f
3:30 9 17 mph 1021.6mb 66f
3:24 10 18 mph 1021.7mb 67f
3:18 9 20 mph 1021.7mb 66f
3:12 10 16 mph 1021.7mb 67f
3:06 8 16 mph 1021.7mb 67f
3:00 9 17 mph 1021.7mb 66f
2:54 10 18 mph 1021.8mb 66f
2:48 10 20 mph 1021.8mb 65f
2:42 10 18 mph 1021.9mb 65f
2:36 9 17 mph 1021.9mb 65f
2:30 9 18 mph 1022mb 65f
2:24 9 15 mph 1022mb 65f
2:18 8 18 mph 1022mb 65f
2:12 10 21 mph 1022mb 65f
2:06 10 17 mph 1022mb 65f
2:00 10 16 mph 1022mb 65f
1:54 10 18 mph 1022.1mb 64f
1:48 10 18 mph 1022.2mb 64f
1:42 9 17 mph 1022.3mb 64f
1:36 9 16 mph 1022.3mb 64f
1:30 9 18 mph 1022.3mb 64f
1:24 8 16 mph 1022.3mb 64f
1:18 11 20 mph 1022.3mb 63f
1:12 9 21 mph 1022.4mb 64f
1:06 11 20 mph 1022.4mb 64f
1:00 9 17 mph 1022.4mb 64f
12:54 8 17 mph 1022.5mb 64f
12:48 7 14 mph 1022.6mb 65f
12:42 6 14 mph 1022.7mb 64f
12:36 8 16 mph 1022.8mb 64f
12:30 8 15 mph 1022.9mb 64f
12:24 8 14 mph 1023mb 64f
12:18 9 15 mph 1023mb 63f
12:12 6 11 mph 1023mb 63f
12:06 10 15 mph 1023.1mb 62f
12:00 9 15 mph 1023.3mb 62f
11:54 8 16 mph 1023.4mb 62f
11:48 7 14 mph 1023.5mb 62f
11:42 9 14 mph 1023.5mb 62f
11:36 9 14 mph 1023.5mb 61f
11:30 8 15 mph 1023.6mb 61f
11:24 8 14 mph 1023.7mb 61f
11:18 8 14 mph 1023.7mb 62f
11:12 6 13 mph 1023.7mb 62f
11:06 6 10 mph 1023.8mb 62f
11:00 6 11 mph 1023.8mb 62f
10:54 6 13 mph 1023.8mb 61f
10:48 7 11 mph 1023.8mb 61f
10:42 7 10 mph 1023.8mb 60f
10:36 7 10 mph 1023.9mb 60f
10:30 6 9 mph 1023.9mb 60f
10:24 5 8 mph 1023.9mb 60f
10:18 5 8 mph 1023.9mb 59f
10:12 6 10 mph 1024mb 58f
10:06 5 10 mph 1024mb 58f
10:00 6 9 mph 1023.9mb 57f
9:54 6 9 mph 1023.9mb 56f
9:48 5 9 mph 1023.9mb 56f
9:42 7 10 mph 1023.9mb 55f
9:36 3 7 mph 1023.9mb 56f
9:30 5 9 mph 1023.9mb 55f
9:24 5 7 mph 1023.9mb 54f
9:18 6 9 mph 1023.9mb 53f
9:12 5 9 mph 1023.9mb 53f
9:06 7 9 mph 1023.9mb 52f
9:00 6 8 mph 1023.9mb 52f
8:54 5 8 mph 1023.9mb 53f
8:48 3 8 mph 1023.9mb 52f
8:42 6 8 mph 1023.9mb 51f
8:36 6 8 mph 1024mb 51f
8:30 3 7 mph 1024mb 51f
8:24 3 6 mph 1024mb 52f
8:18 5 8 mph 1024mb 52f
8:12 6 7 mph 1024mb 51f
8:06 5 8 mph 1024mb 51f
8:00 6 8 mph 1023.9mb 51f
7:54 5 9 mph 1023.9mb 51f
7:48 5 8 mph 1024mb 51f
7:42 5 10 mph 1024mb 51f
7:36 3 7 mph 1024mb 50f
7:30 2 5 mph 1024mb 50f
7:24 3 7 mph 1023.9mb 50f
7:18 6 8 mph 1023.9mb 49f
7:12 7 10 mph 1023.9mb 49f
7:06 6 9 mph 1023.8mb 49f
7:00 6 10 mph 1023.8mb 49f
6:54 6 10 mph 1023.8mb 49f
6:48 6 9 mph 1023.7mb 49f
6:42 5 9 mph 1023.7mb 49f
6:36 6 9 mph 1023.6mb 48f
6:30 5 8 mph 1023.6mb 48f
6:24 5 8 mph 1023.6mb 48f
6:18 5 8 mph 1023.5mb 48f
6:12 5 8 mph 1023.5mb 48f
6:06 5 7 mph 1023.4mb 48f
6:00 5 8 mph 1023.3mb 47f
5:54 5 8 mph 1023.3mb 47f
5:48 5 8 mph 1023.3mb 47f
5:42 5 9 mph 1023.3mb 47f
5:36 6 9 mph 1023.2mb 47f
5:30 6 9 mph 1023.1mb 47f
5:24 6 9 mph 1023mb 47f
5:18 5 9 mph 1023mb 47f
5:12 5 9 mph 1023mb 47f
5:06 6 10 mph 1023mb 47f
5:00 5 8 mph 1023mb 47f
4:54 6 9 mph 1022.9mb 47f
4:48 5 8 mph 1022.9mb 48f
4:42 6 10 mph 1022.9mb 48f
4:36 5 9 mph 1022.8mb 48f
4:30 6 9 mph 1022.8mb 48f
4:24 6 8 mph 1022.8mb 48f
4:18 6 8 mph 1022.8mb 48f
4:12 6 10 mph 1022.8mb 48f
4:06 5 9 mph 1022.8mb 48f
4:00 6 8 mph 1022.8mb 48f
3:54 6 9 mph 1022.8mb 48f
3:48 5 9 mph 1022.9mb 48f
3:42 5 8 mph 1022.9mb 48f
3:36 5 7 mph 1022.9mb 48f
3:30 3 7 mph 1022.9mb 48f
3:24 5 6 mph 1022.8mb 48f
3:18 5 7 mph 1022.7mb 48f
3:12 5 8 mph 1022.6mb 48f
3:06 5 8 mph 1022.7mb 48f
3:00 6 8 mph 1022.8mb 48f
2:54 3 7 mph 1022.8mb 48f
2:48 3 7 mph 1022.9mb 48f
2:42 3 5 mph 1022.8mb 48f
2:36 3 7 mph 1022.8mb 48f
2:30 3 8 mph 1022.8mb 48f
2:24 3 6 mph 1022.9mb 48f
2:18 3 7 mph 1022.9mb 48f
2:12 3 7 mph 1022.8mb 48f
2:06 3 6 mph 1022.7mb 48f
2:00 3 8 mph 1022.6mb 49f
1:54 3 7 mph 1022.6mb 49f
1:48 6 9 mph 1022.6mb 49f
1:42 5 8 mph 1022.5mb 49f
1:36 5 9 mph 1022.6mb 49f
1:30 6 8 mph 1022.6mb 49f
1:24 5 8 mph 1022.7mb 49f
1:18 5 8 mph 1022.6mb 49f
1:12 5 8 mph 1022.6mb 49f
1:06 5 9 mph 1022.6mb 49f
1:00 5 9 mph 1022.5mb 49f
12:54 5 8 mph 1022.6mb 49f
12:48 5 8 mph 1022.6mb 49f
12:42 5 10 mph 1022.5mb 49f
12:36 5 8 mph 1022.5mb 49f
12:30 6 9 mph 1022.5mb 49f
12:24 6 9 mph 1022.4mb 49f
12:18 6 10 mph 1022.4mb 48f
12:12 6 11 mph 1022.3mb 48f
12:06 6 10 mph 1022.4mb 48f
12:00 6 10 mph 1022.3mb 49f
dim. 05/03 11:54 6 10 mph 1022.2mb 49f
11:48 6 9 mph 1022.3mb 49f
11:42 6 13 mph 1022.3mb 49f
11:36 6 9 mph 1022.2mb 49f
11:30 6 10 mph 1022.2mb 48f
11:24 5 9 mph 1022.2mb 48f
11:18 6 9 mph 1022.2mb 48f
11:12 5 9 mph 1022.2mb 48f
11:06 6 10 mph 1022.2mb 48f
11:00 5 10 mph 1022.2mb 48f
10:54 5 8 mph 1022.2mb 48f
10:48 5 10 mph 1022.1mb 48f
10:42 5 9 mph 1022.2mb 48f
10:36 5 9 mph 1022.1mb 48f
10:30 7 11 mph 1022.1mb 48f
10:24 6 11 mph 1022.1mb 48f
10:18 6 14 mph 1022.1mb 48f
10:12 6 13 mph 1022mb 49f
10:06 7 11 mph 1022mb 49f
10:00 5 9 mph 1022.1mb 48f
9:54 6 13 mph 1021.9mb 49f
9:48 7 14 mph 1022mb 49f
9:42 6 11 mph 1022.1mb 49f
9:36 5 8 mph 1022.2mb 49f
9:30 6 9 mph 1022.3mb 49f
9:24 6 9 mph 1022.3mb 49f
9:18 5 9 mph 1022.2mb 49f
9:12 5 9 mph 1022.2mb 49f
9:06 6 9 mph 1022.1mb 49f
9:00 5 9 mph 1022mb 49f
8:54 5 10 mph 1021.9mb 49f
8:48 5 10 mph 1021.9mb 49f
8:42 5 8 mph 1021.7mb 49f
8:36 5 9 mph 1021.6mb 49f
8:30 6 10 mph 1021.5mb 49f
8:24 6 10 mph 1021.5mb 49f
8:18 6 10 mph 1021.4mb 49f
8:12 6 10 mph 1021.4mb 49f
8:06 6 10 mph 1021.2mb 49f
8:00 6 11 mph 1021.2mb 49f
7:54 6 13 mph 1021.2mb 49f
7:48 7 15 mph 1021.1mb 49f
7:42 6 11 mph 1021.1mb 49f
7:36 6 11 mph 1021.1mb 49f
7:30 7 14 mph 1021mb 49f
7:24 7 14 mph 1021mb 49f
7:18 8 15 mph 1020.9mb 49f
7:12 8 14 mph 1020.8mb 49f
7:06 8 17 mph 1020.8mb 50f
7:00 8 16 mph 1020.7mb 50f
6:54 8 15 mph 1020.6mb 50f
6:48 9 15 mph 1020.5mb 50f
6:42 9 16 mph 1020.4mb 51f
6:36 10 17 mph 1020.4mb 51f
6:30 8 14 mph 1020.4mb 51f
6:24 7 13 mph 1020.4mb 52f
6:18 7 13 mph 1020.4mb 52f
6:12 7 15 mph 1020.4mb 52f
6:06 6 13 mph 1020.4mb 53f
6:00 6 11 mph 1020.4mb 53f
5:54 7 14 mph 1020.3mb 52f
5:48 8 16 mph 1020.3mb 52f
5:42 8 16 mph 1020.3mb 52f
5:36 9 17 mph 1020.3mb 52f
5:30 8 16 mph 1020.2mb 52f
5:24 8 16 mph 1020.1mb 53f
5:18 8 17 mph 1020.2mb 52f
5:12 10 20 mph 1020mb 52f
5:06 8 17 mph 1020mb 52f
5:00 10 18 mph 1019.9mb 51f
4:54 10 21 mph 1019.8mb 52f
4:48 9 17 mph 1019.7mb 52f
4:42 10 23 mph 1019.8mb 52f
4:36 11 21 mph 1019.8mb 51f
4:30 10 18 mph 1019.9mb 52f
4:24 9 20 mph 1019.8mb 51f
4:18 9 21 mph 1019.8mb 51f
4:12 10 18 mph 1019.7mb 51f
4:06 9 20 mph 1019.7mb 51f
4:00 11 20 mph 1019.8mb 51f
3:54 9 21 mph 1019.8mb 51f
3:48 11 20 mph 1019.8mb 51f
3:42 10 20 mph 1019.9mb 51f
3:36 10 23 mph 1019.9mb 51f
3:30 9 18 mph 1019.9mb 52f
3:24 10 20 mph 1019.9mb 52f
3:18 10 18 mph 1019.8mb 52f
3:12 9 18 mph 1019.7mb 53f
3:06 11 22 mph 1019.6mb 53f
3:00 10 18 mph 1019.5mb 54f
2:54 10 21 mph 1019.6mb 54f
2:48 11 20 mph 1019.6mb 53f
2:42 11 23 mph 1019.5mb 54f
2:36 11 21 mph 1019.5mb 54f
2:30 10 20 mph 1019.5mb 55f
2:24 10 18 mph 1019.5mb 54f
2:18 10 21 mph 1019.4mb 55f
2:12 11 20 mph 1019.4mb 54f
2:06 11 21 mph 1019.4mb 54f
2:00 10 22 mph 1019.4mb 55f
1:54 11 20 mph 1019.3mb 55f
1:48 10 17 mph 1019.3mb 55f
1:42 9 17 mph 1019.3mb 55f
1:36 8 20 mph 1019.3mb 56f
1:30 9 17 mph 1019.2mb 56f
1:24 8 17 mph 1019.2mb 57f
1:18 6 14 mph 1019.2mb 58f
1:12 7 14 mph 1019.2mb 58f
1:06 6 13 mph 1019.1mb 58f
1:00 9 17 mph 1019.1mb 56f
12:54 9 16 mph 1019.2mb 57f
12:48 8 15 mph 1019.1mb 56f
12:42 8 15 mph 1019.1mb 57f
12:36 9 15 mph 1019.2mb 57f
12:30 9 16 mph 1019.2mb 57f
12:24 8 17 mph 1019.2mb 56f
12:18 7 14 mph 1019.3mb 58f
12:12 6 14 mph 1019.3mb 57f
12:06 9 16 mph 1019.3mb 56f
12:00 8 13 mph 1019.3mb 57f
11:54 8 14 mph 1019.3mb 56f
11:48 8 14 mph 1019.3mb 57f
11:42 7 13 mph 1019.2mb 58f
11:36 8 13 mph 1019.2mb 56f
11:30 8 13 mph 1019.2mb 56f
11:24 8 13 mph 1019.1mb 57f
11:18 7 14 mph 1019.1mb 57f
11:12 8 13 mph 1019.1mb 57f
11:06 8 13 mph 1019mb 56f
11:00 7 14 mph 1019.1mb 56f
10:54 6 11 mph 1019.1mb 56f
10:48 7 11 mph 1019.1mb 56f
10:42 6 10 mph 1019mb 57f
10:36 6 10 mph 1019mb 57f
10:30 5 9 mph 1019mb 57f
10:24 5 8 mph 1019mb 57f
10:18 6 9 mph 1019mb 56f
10:12 5 7 mph 1019mb 56f
10:06 5 10 mph 1018.9mb 56f
10:00 7 10 mph 1018.9mb 55f
9:54 5 8 mph 1018.9mb 56f
9:48 5 8 mph 1018.9mb 55f
9:42 6 9 mph 1018.9mb 54f
9:36 5 7 mph 1018.9mb 55f
9:30 7 11 mph 1019mb 54f
9:24 7 10 mph 1019mb 55f
9:18 7 11 mph 1019mb 55f
9:12 7 10 mph 1019mb 55f
9:06 6 9 mph 1019mb 55f
9:00 8 10 mph 1019mb 53f
8:54 8 13 mph 1019.1mb 53f
8:48 7 11 mph 1019.1mb 53f
8:42 6 9 mph 1019.1mb 53f
8:36 7 10 mph 1019.1mb 53f
8:30 9 13 mph 1019.1mb 52f
8:24 7 13 mph 1019mb 53f
8:18 8 13 mph 1019mb 52f
8:12 8 11 mph 1019mb 52f
8:06 7 10 mph 1019mb 51f
8:00 7 11 mph 1018.9mb 51f
7:54 7 11 mph 1018.8mb 51f
7:48 6 10 mph 1018.8mb 51f
7:42 7 8 mph 1018.7mb 51f
7:36 6 10 mph 1018.7mb 50f
7:30 7 8 mph 1018.6mb 50f
7:24 7 10 mph 1018.5mb 50f
7:18 6 9 mph 1018.5mb 50f
7:12 6 9 mph 1018.5mb 49f
7:06 6 9 mph 1018.4mb 49f
7:00 7 9 mph 1018.3mb 49f
6:54 6 9 mph 1018.3mb 49f
6:48 7 9 mph 1018.2mb 49f
6:42 6 11 mph 1018.2mb 49f
6:36 7 9 mph 1018.1mb 48f
6:30 7 10 mph 1018.1mb 48f
6:24 7 10 mph 1018mb 48f
6:18 7 9 mph 1018mb 48f
6:12 6 9 mph 1018mb 48f
6:06 6 8 mph 1017.9mb 48f
6:00 5 8 mph 1017.9mb 47f
5:54 5 8 mph 1017.8mb 47f
5:48 5 8 mph 1017.8mb 47f
5:42 5 6 mph 1017.8mb 47f
5:36 3 6 mph 1017.8mb 47f
5:30 5 7 mph 1017.8mb 47f
5:24 6 8 mph 1017.7mb 47f
5:18 5 10 mph 1017.6mb 47f
5:12 6 8 mph 1017.6mb 47f
5:06 6 9 mph 1017.5mb 47f
5:00 6 8 mph 1017.5mb 46f
4:54 6 8 mph 1017.5mb 46f
4:48 6 8 mph 1017.5mb 46f
4:42 6 9 mph 1017.5mb 46f
4:36 6 9 mph 1017.4mb 46f
4:30 6 9 mph 1017.4mb 46f
4:24 6 8 mph 1017.5mb 46f
4:18 6 8 mph 1017.4mb 46f
4:12 6 8 mph 1017.4mb 46f
4:06 5 8 mph 1017.4mb 46f
4:00 5 7 mph 1017.3mb 46f
3:54 5 7 mph 1017.3mb 46f
3:48 3 7 mph 1017.2mb 45f
3:42 5 6 mph 1017.2mb 45f
3:36 3 5 mph 1017.3mb 45f
3:30 3 6 mph 1017.3mb 45f
3:24 3 5 mph 1017.3mb 46f
3:18 5 6 mph 1017.3mb 46f
3:12 5 7 mph 1017.3mb 46f
3:06 5 7 mph 1017.3mb 45f
3:00 5 7 mph 1017.3mb 45f
2:54 5 8 mph 1017.2mb 45f
2:48  -  mph - 46f
2:42  -  mph - 46f
2:36  -  mph - 46f
2:30 6 9 mph 1017.3mb 46f
2:24 7 10 mph 1017.3mb 46f
2:18 7 10 mph 1017.4mb 46f
2:12 6 8 mph 1017.4mb 46f
2:06 6 9 mph 1017.3mb 46f
2:00 5 7 mph 1017.4mb 45f
1:54 6 8 mph 1017.5mb 45f
1:48 5 8 mph 1017.5mb 45f
1:42 6 9 mph 1017.4mb 46f
1:36 6 7 mph 1017.5mb 46f
1:30 6 8 mph 1017.5mb 46f
1:24 6 8 mph 1017.5mb 45f
1:18 6 8 mph 1017.5mb 45f
1:12 5 8 mph 1017.5mb 45f
1:06 5 7 mph 1017.5mb 45f
1:00 5 6 mph 1017.6mb 45f
12:54 5 7 mph 1017.6mb 45f
12:48 5 6 mph 1017.5mb 44f
12:42 5 7 mph 1017.5mb 45f
12:36 5 7 mph 1017.5mb 44f
12:30 5 6 mph 1017.5mb 44f
12:24 5 7 mph 1017.4mb 44f
12:18 5 6 mph 1017.5mb 44f
12:12 3 6 mph 1017.4mb 44f
12:06 3 6 mph 1017.4mb 44f
12:00 3 6 mph 1017.4mb 44f
sam. 05/02 11:54 5 7 mph 1017.4mb 44f
11:48 6 8 mph 1017.5mb 45f
11:42 6 8 mph 1017.5mb 45f
11:36 6 9 mph 1017.6mb 45f
11:30 6 8 mph 1017.5mb 45f
11:24 5 6 mph 1017.5mb 45f
11:18 3 6 mph 1017.5mb 45f
11:12 5 7 mph 1017.4mb 45f
11:06 5 7 mph 1017.4mb 45f
11:00 6 9 mph 1017.3mb 45f
10:54 6 8 mph 1017.4mb 45f
10:48 6 8 mph 1017.3mb 46f
10:42 7 9 mph 1017.4mb 46f
10:36 6 9 mph 1017.4mb 46f
10:30 6 9 mph 1017.4mb 46f
10:24 6 8 mph 1017.3mb 46f
10:18 6 8 mph 1017.3mb 46f
10:12 6 8 mph 1017.3mb 46f
10:06 6 8 mph 1017.3mb 46f
10:00 6 7 mph 1017.2mb 46f
9:54 6 8 mph 1017.3mb 46f
9:48 6 8 mph 1017.2mb 46f
9:42 5 7 mph 1017.1mb 46f
9:36 6 8 mph 1017.1mb 46f
9:30 5 8 mph 1017mb 46f
9:24 6 8 mph 1016.9mb 46f
9:18 6 8 mph 1017mb 46f
9:12 5 7 mph 1017mb 46f
9:06 5 8 mph 1017mb 46f
9:00 6 9 mph 1017mb 46f
8:54 6 9 mph 1017mb 46f
8:48 7 10 mph 1016.9mb 46f
8:42 7 11 mph 1016.8mb 47f
8:36 7 11 mph 1016.9mb 46f
8:30 6 9 mph 1016.8mb 46f
8:24 6 11 mph 1016.7mb 46f
8:18 8 15 mph 1016.7mb 46f
8:12 7 14 mph 1016.6mb 47f
8:06 7 14 mph 1016.6mb 46f
8:00 7 13 mph 1016.5mb 47f
7:54 7 10 mph 1016.4mb 47f
7:48 7 13 mph 1016.4mb 47f
7:42 7 13 mph 1016.3mb 47f
7:36 7 13 mph 1016.2mb 47f
7:30 7 11 mph 1016.2mb 47f
7:24 7 15 mph 1016.1mb 47f
7:18 8 14 mph 1016mb 47f
7:12 7 14 mph 1016mb 47f
7:06 7 11 mph 1015.9mb 47f
7:00 7 14 mph 1015.9mb 48f
6:54 7 11 mph 1015.8mb 48f
6:48 7 14 mph 1015.6mb 48f
6:42 7 11 mph 1015.5mb 49f
6:36 8 13 mph 1015.5mb 49f
6:30 8 14 mph 1015.5mb 49f
6:24 7 14 mph 1015.5mb 49f
6:18 6 15 mph 1015.4mb 49f
6:12 8 15 mph 1015.4mb 49f
6:06 8 14 mph 1015.4mb 50f
6:00 8 16 mph 1015.4mb 50f
5:54 7 13 mph 1015.4mb 50f
5:48 7 13 mph 1015.3mb 51f
5:42 6 10 mph 1015.3mb 51f
5:36 7 14 mph 1015.3mb 51f
5:30 8 15 mph 1015.3mb 51f
5:24 8 13 mph 1015.3mb 50f
5:18 8 14 mph 1015.3mb 50f
5:12 9 16 mph 1015.2mb 50f
5:06 9 14 mph 1015.2mb 50f
5:00 9 14 mph 1015.1mb 51f
4:54 9 15 mph 1015mb 51f
4:48 8 16 mph 1014.9mb 52f
4:42 8 13 mph 1014.9mb 51f
4:36 10 16 mph 1014.8mb 51f
4:30 10 17 mph 1014.8mb 51f
4:24 9 14 mph 1014.8mb 52f
4:18 9 14 mph 1014.8mb 53f
4:12 8 15 mph 1014.8mb 53f
4:06 8 15 mph 1014.8mb 53f
4:00 7 13 mph 1014.8mb 54f
3:54 7 13 mph 1014.8mb 55f
3:48 7 13 mph 1014.8mb 55f
3:42 8 15 mph 1014.9mb 55f
3:36 9 16 mph 1014.9mb 54f
3:30 9 16 mph 1014.9mb 54f
3:24 8 15 mph 1015mb 54f
3:18 8 13 mph 1015mb 55f
3:12 9 16 mph 1015.1mb 54f
3:06 10 16 mph 1015.1mb 54f
3:00 10 16 mph 1015.2mb 54f
2:54 8 15 mph 1015.3mb 55f
2:48 9 16 mph 1015.3mb 54f
2:42 9 15 mph 1015.3mb 55f
2:36 7 11 mph 1015.4mb 55f
2:30 8 13 mph 1015.4mb 55f
2:24 8 14 mph 1015.5mb 54f
2:18 9 14 mph 1015.5mb 54f
2:12 8 14 mph 1015.5mb 55f
2:06 8 14 mph 1015.5mb 54f
2:00 7 14 mph 1015.5mb 54f
1:54 9 16 mph 1015.6mb 53f
1:48 10 16 mph 1015.7mb 53f
1:42 8 13 mph 1015.7mb 53f
1:36 9 15 mph 1015.8mb 54f
1:30 9 15 mph 1015.8mb 53f
1:24 9 15 mph 1015.9mb 53f
1:18 8 16 mph 1015.9mb 54f
1:12 8 14 mph 1015.9mb 53f
1:06 8 14 mph 1016mb 53f
1:00 8 14 mph 1016mb 52f
12:54 9 13 mph 1016mb 51f
12:48 6 10 mph 1016.1mb 52f
12:42 8 13 mph 1016.1mb 51f
12:36 8 11 mph 1016.1mb 51f
12:30 8 11 mph 1016.2mb 51f
12:24 7 13 mph 1016.3mb 51f
12:18 7 10 mph 1016.3mb 51f
12:12 8 13 mph 1016.4mb 51f
12:06 6 10 mph 1016.4mb 53f
12:00 1 2 mph 1016.4mb 55f
11:54 2 3 mph 1016.4mb 54f
11:48 2 3 mph 1016.5mb 53f
11:42 2 3 mph 1016.6mb 53f
11:36 1 2 mph 1016.6mb 52f
11:30 1 2 mph 1016.6mb 53f
11:24 1 2 mph 1016.6mb 52f
11:18 2 3 mph 1016.6mb 51f
11:12 2 3 mph 1016.6mb 51f
11:06 1 2 mph 1016.6mb 51f
11:00 1 3 mph 1016.6mb 51f
10:54 2 3 mph 1016.6mb 49f
10:48 2 3 mph 1016.6mb 49f
10:42 3
mph
1016.6mb 50f
10:36 3 5 mph 1016.5mb 49f
10:30 5 6 mph 1016.6mb 49f
10:24 3 5 mph 1016.6mb 48f
10:18 5 6 mph 1016.6mb 47f
10:12 5 6 mph 1016.6mb 47f
10:06 3 6 mph 1016.6mb 46f
10:00 3 8 mph 1016.6mb 46f
9:54 5 7 mph 1016.6mb 46f
9:48 3 5 mph 1016.6mb 45f
9:36 5 6 mph 1016.6mb 44f
9:30 3 5 mph 1016.7mb 44f
9:24 5 7 mph 1016.7mb 43f
9:18 5 6 mph 1016.8mb 43f
9:12 5 7 mph 1016.8mb 43f
9:06 2 5 mph 1016.9mb 42f
9:00 3 6 mph 1016.9mb 42f
8:54 3 6 mph 1016.9mb 42f
8:48 3 6 mph 1016.9mb 41f
8:42 5 7 mph 1017mb 41f
8:36 5 7 mph 1017mb 41f
8:30 3 7 mph 1017mb 41f
8:24 5 7 mph 1017mb 41f
8:18 3 7 mph 1016.9mb 41f
8:12 6 7 mph 1016.9mb 41f
8:06 5 7 mph 1017mb 40f
8:00 3 6 mph 1017mb 40f
7:54 5 8 mph 1017mb 41f
7:48 3 5 mph 1017mb 40f
7:42 5 8 mph 1017mb 40f
7:36 6 9 mph 1016.9mb 40f
7:30 6 9 mph 1016.9mb 40f
7:24 5 7 mph 1016.9mb 40f
7:18 5 6 mph 1016.8mb 40f
7:12 5 6 mph 1016.8mb 40f
7:06 6 7 mph 1016.8mb 40f
7:00 6 8 mph 1016.8mb 40f
6:54 5 7 mph 1016.8mb 40f
6:48 3 6 mph 1016.8mb 40f
6:42 1 3 mph 1016.7mb 40f
6:36 6 7 mph 1016.7mb 40f
6:30 3 6 mph 1016.6mb 40f
6:24 5 6 mph 1016.6mb 40f
6:18 3 6 mph 1016.5mb 40f
6:12 5 7 mph 1016.5mb 40f
6:06 3 5 mph 1016.5mb 40f
6:00 6 8 mph 1016.4mb 40f
5:54 5 7 mph 1016.3mb 40f
5:48 3 7 mph 1016.2mb 39f
5:42 3 6 mph 1016.2mb 40f
5:36 5 7 mph 1016.2mb 40f
5:30 3 6 mph 1016.1mb 39f
5:24 6 8 mph 1016mb 40f
5:18 5 7 mph 1016mb 40f
5:12 5 8 mph 1016mb 40f
5:06 5 7 mph 1016mb 40f
5:00 5 6 mph 1016mb 39f
4:54 6 8 mph 1015.9mb 40f
4:48 5 7 mph 1015.9mb 40f
4:42 6 8 mph 1015.9mb 39f
4:36 6 7 mph 1016mb 39f
4:30 3 6 mph 1016mb 39f
4:24 5 7 mph 1016mb 39f
4:18 5 7 mph 1016mb 39f
4:12 5 7 mph 1016mb 39f
4:06 5 7 mph 1016mb 39f
4:00 6 8 mph 1016mb 40f
3:54 5 7 mph 1015.9mb 40f
3:48 3 6 mph 1015.8mb 40f
3:42 6 7 mph 1015.7mb 40f
3:36 6 7 mph 1015.7mb 40f
3:30 6 7 mph 1015.7mb 40f
3:24 6 7 mph 1015.6mb 40f
3:18 6 7 mph 1015.6mb 40f
3:12 5 6 mph 1015.6mb 40f
3:06 5 7 mph 1015.6mb 40f
3:00 5 6 mph 1015.6mb 40f
2:54 5 6 mph 1015.6mb 40f
2:48 6 8 mph 1015.7mb 40f
2:42 5 6 mph 1015.6mb 40f
2:36 6 7 mph 1015.6mb 40f
2:30 6 7 mph 1015.6mb 40f
2:24 6 7 mph 1015.6mb 40f
2:18 5 7 mph 1015.7mb 41f
2:12 5 7 mph 1015.7mb 40f
2:06 6 7 mph 1015.8mb 41f
2:00 5 6 mph 1015.9mb 40f
1:54 3 6 mph 1015.9mb 40f
1:48 2 5 mph 1015.8mb 40f